Icem, Brazil
Current Conditions -  °F | °C
As of 5:00 AM on Friday 24 Oct 2014 (Local Time) from SBSR Reporting Station
Clear Clear  
Wind Chill: 75°   Ceiling: Unl
Heat Index: 75°   Visibility: 6mi
Dew Point: 61°   Wind: 8mph
Humidity: 61%   Direction: 120°ESE
Pressure: 29.97"   Gusts: NA
Location:  20.34°S, 49.2°W
Report Text: SBSR 240700Z 12007KT CAVOK 24/16 Q1015
Loading
Personal Weather Stations






























Interactive Weather Map
Tropical Storm Tracking
New forecast layout! Learn more

10-Day Weather Forecast

Advertisements
Track Severe Weather on mobile